createdAt,value
2019-02-21T00:01:30.198Z,23.27
2019-02-21T00:04:04.281Z,29.37
2019-02-21T00:06:37.849Z,23.17
2019-02-21T00:09:11.558Z,25.77
2019-02-21T00:11:48.601Z,25.07
2019-02-21T00:14:22.322Z,27.17
2019-02-21T00:16:56.041Z,27.67
2019-02-21T00:19:29.681Z,23.97
2019-02-21T00:22:03.415Z,26.63
2019-02-21T00:24:40.179Z,23.47
2019-02-21T00:27:13.785Z,24.23
2019-02-21T00:29:47.469Z,25.37
2019-02-21T00:32:24.747Z,27.13
2019-02-21T00:34:58.425Z,22.27
2019-02-21T00:37:32.055Z,26.23
2019-02-21T00:40:07.788Z,21.80
2019-02-21T00:42:41.554Z,25.37
2019-02-21T00:45:15.650Z,23.53
2019-02-21T00:47:49.253Z,20.70
2019-02-21T00:50:29.284Z,23.30
2019-02-21T00:53:02.877Z,26.10
2019-02-21T00:55:36.677Z,26.83
2019-02-21T00:58:10.338Z,24.80
2019-02-21T01:00:46.773Z,24.67
2019-02-21T01:03:19.246Z,23.63
2019-02-21T01:05:54.781Z,24.93
2019-02-21T01:08:28.408Z,22.93
2019-02-21T01:11:02.063Z,21.90
2019-02-21T01:13:47.768Z,20.17
2019-02-21T01:16:21.437Z,25.20
2019-02-21T01:18:55.085Z,23.73
2019-02-21T01:21:28.696Z,25.53
2019-02-21T01:24:04.846Z,27.93
2019-02-21T01:26:49.641Z,25.27
2019-02-21T01:29:23.268Z,24.23
2019-02-21T01:31:56.973Z,19.87
2019-02-21T01:34:30.602Z,27.23
2019-02-21T01:37:04.268Z,24.33
2019-02-21T01:39:39.931Z,28.30
2019-02-21T01:42:13.522Z,24.00
2019-02-21T01:44:47.169Z,23.57
2019-02-21T01:47:37.500Z,20.17
2019-02-21T01:50:11.211Z,22.63
2019-02-21T01:52:47.890Z,26.57
2019-02-21T01:55:21.555Z,25.77
2019-02-21T01:57:57.196Z,26.03
2019-02-21T02:00:30.856Z,23.30
2019-02-21T02:03:04.845Z,25.53
2019-02-21T02:05:50.612Z,24.60
2019-02-21T02:08:24.241Z,24.23
2019-02-21T02:10:57.928Z,23.57
2019-02-21T02:13:34.574Z,25.53
2019-02-21T02:16:08.164Z,24.63
2019-02-21T02:18:49.099Z,25.47
2019-02-21T02:21:22.661Z,22.70
2019-02-21T02:23:56.356Z,28.00
2019-02-21T02:26:32.024Z,25.80
2019-02-21T02:29:05.783Z,26.07
2019-02-21T02:31:48.407Z,28.23
2019-02-21T02:34:22.093Z,24.80
2019-02-21T02:36:55.750Z,29.97
2019-02-21T02:39:29.373Z,31.03
2019-02-21T02:42:03.108Z,28.50
2019-02-21T02:44:48.691Z,27.07
2019-02-21T02:47:22.395Z,29.63
2019-02-21T02:49:55.983Z,28.40
2019-02-21T02:52:29.611Z,24.40
2019-02-21T02:55:03.378Z,28.07
2019-02-21T02:57:37.040Z,29.87
2019-02-21T03:00:13.436Z,28.87
2019-02-21T03:02:47.064Z,29.63
2019-02-21T03:05:20.803Z,31.40
2019-02-21T03:07:54.491Z,28.67
2019-02-21T03:10:28.411Z,28.43
2019-02-21T03:13:02.000Z,29.43
2019-02-21T03:15:35.613Z,33.03
2019-02-21T03:18:09.351Z,33.23
2019-02-21T03:20:43.031Z,30.97
2019-02-21T03:23:16.632Z,30.87
2019-02-21T03:25:50.321Z,31.27
2019-02-21T03:28:23.938Z,33.30
2019-02-21T03:30:57.547Z,29.80
2019-02-21T03:33:31.176Z,31.03
2019-02-21T03:36:05.752Z,32.87
2019-02-21T03:38:39.461Z,33.53
2019-02-21T03:41:13.055Z,34.23
2019-02-21T03:43:46.756Z,36.23
2019-02-21T03:46:20.352Z,31.47
2019-02-21T03:48:54.063Z,31.83
2019-02-21T03:51:27.759Z,37.27
2019-02-21T03:54:01.459Z,33.50
2019-02-21T03:56:35.198Z,36.83
2019-02-21T03:59:09.055Z,33.30
2019-02-21T04:01:42.779Z,38.37
2019-02-21T04:04:16.599Z,46.67
2019-02-21T04:06:50.339Z,42.67
2019-02-21T04:09:23.952Z,38.53
2019-02-21T04:12:00.603Z,40.37
2019-02-21T04:14:34.429Z,41.60
2019-02-21T04:17:08.113Z,37.67
2019-02-21T04:19:50.779Z,46.70
2019-02-21T04:22:24.328Z,38.90
2019-02-21T04:24:58.938Z,44.13
2019-02-21T04:27:32.554Z,39.33
2019-02-21T04:30:09.891Z,45.00
2019-02-21T04:32:43.517Z,40.50
2019-02-21T04:35:17.158Z,48.00
2019-02-21T04:37:50.772Z,46.43
2019-02-21T04:40:28.099Z,46.37
2019-02-21T04:43:01.759Z,45.20
2019-02-21T04:45:35.326Z,44.87
2019-02-21T04:48:09.012Z,43.60
2019-02-21T04:50:42.619Z,47.60
2019-02-21T04:53:16.263Z,45.13
2019-02-21T04:55:49.879Z,47.53
2019-02-21T04:58:30.694Z,46.97
2019-02-21T05:01:04.524Z,46.00
2019-02-21T05:03:44.129Z,46.80
2019-02-21T05:06:17.742Z,47.80
2019-02-21T05:09:07.504Z,45.87
2019-02-21T05:11:41.415Z,47.83
2019-02-21T05:14:15.042Z,52.80
2019-02-21T05:16:50.077Z,46.67
2019-02-21T05:19:23.727Z,44.47
2019-02-21T05:21:57.350Z,50.63
2019-02-21T05:24:32.235Z,49.10
2019-02-21T05:27:07.523Z,48.80
2019-02-21T05:29:41.219Z,53.93
2019-02-21T05:32:16.497Z,45.77
2019-02-21T05:35:08.713Z,52.00
2019-02-21T05:37:44.003Z,54.73
2019-02-21T05:43:55.907Z,53.03
2019-02-21T05:46:31.345Z,49.30
2019-02-21T05:51:52.614Z,59.73
2019-02-21T05:54:33.272Z,58.33
2019-02-21T05:57:08.530Z,62.07
2019-02-21T06:03:11.697Z,58.33
2019-02-21T06:05:49.617Z,57.80
2019-02-21T06:08:24.877Z,60.57
2019-02-21T06:11:29.514Z,61.77
2019-02-21T06:14:24.940Z,61.50
2019-02-21T06:19:55.840Z,61.77
2019-02-21T06:22:54.479Z,60.20
2019-02-21T06:25:30.578Z,59.23
2019-02-21T06:28:09.018Z,57.17
2019-02-21T06:30:47.679Z,59.70
2019-02-21T06:33:21.323Z,63.87
2019-02-21T06:35:55.001Z,64.90
2019-02-21T06:38:33.658Z,62.70
2019-02-21T06:41:07.469Z,62.50
2019-02-21T06:43:41.090Z,62.27
2019-02-21T06:46:14.791Z,57.73
2019-02-21T06:48:48.373Z,61.83
2019-02-21T06:51:28.266Z,60.17
2019-02-21T06:54:02.183Z,57.13
2019-02-21T06:56:36.781Z,63.97
2019-02-21T06:59:10.481Z,60.90
2019-02-21T07:01:44.076Z,62.73
2019-02-21T07:04:17.696Z,66.43
2019-02-21T07:06:51.284Z,60.33
2019-02-21T07:09:24.977Z,55.57
2019-02-21T07:11:58.594Z,63.27
2019-02-21T07:14:34.398Z,63.97
2019-02-21T07:17:08.492Z,57.07
2019-02-21T07:19:42.388Z,63.57
2019-02-21T07:22:22.266Z,58.80
2019-02-21T07:24:57.964Z,62.43
2019-02-21T07:27:31.608Z,53.83
2019-02-21T07:30:19.246Z,60.20
2019-02-21T07:32:43.948Z,54.27
2019-02-21T07:35:20.636Z,60.37
2019-02-21T07:37:54.250Z,59.00
2019-02-21T07:40:30.836Z,59.67
2019-02-21T07:43:04.629Z,48.73
2019-02-21T07:45:50.228Z,49.57
2019-02-21T07:48:23.917Z,53.27
2019-02-21T07:50:57.537Z,56.27
2019-02-21T07:53:36.372Z,53.70
2019-02-21T07:56:09.962Z,45.77
2019-02-21T07:58:43.588Z,48.60
2019-02-21T08:01:17.655Z,45.13
2019-02-21T08:03:51.392Z,50.83
2019-02-21T08:06:25.019Z,47.50
2019-02-21T08:08:58.784Z,44.13
2019-02-21T08:11:32.492Z,43.17
2019-02-21T08:14:06.252Z,44.53
2019-02-21T08:16:39.848Z,48.93
2019-02-21T08:19:13.463Z,47.37
2019-02-21T08:21:47.229Z,42.83
2019-02-21T08:24:21.016Z,41.43
2019-02-21T08:26:54.655Z,41.63
2019-02-21T08:29:28.255Z,38.53
2019-02-21T08:32:12.980Z,30.50
2019-02-21T08:34:48.452Z,29.30
2019-02-21T08:37:24.000Z,29.87
2019-02-21T08:39:58.205Z,29.72
2019-02-21T08:42:32.403Z,26.00
2019-02-21T08:45:06.759Z,31.70
2019-02-21T08:47:40.984Z,26.65
2019-02-21T08:50:15.221Z,31.48
2019-02-21T08:52:49.523Z,31.57
2019-02-21T08:55:23.877Z,33.08
2019-02-21T08:58:04.002Z,30.37
2019-02-21T09:00:38.335Z,26.10
2019-02-21T09:03:18.050Z,26.30
2019-02-21T09:05:52.017Z,26.37
2019-02-21T09:08:33.638Z,27.77
2019-02-21T09:11:04.029Z,25.12
2019-02-21T09:13:41.743Z,21.93
2019-02-21T09:16:17.765Z,24.25
2019-02-21T09:18:52.211Z,29.72
2019-02-21T09:21:26.421Z,22.95
2019-02-21T09:24:00.651Z,24.98
2019-02-21T09:26:41.136Z,29.10
2019-02-21T09:29:15.388Z,24.20
2019-02-21T09:31:49.745Z,26.15
2019-02-21T09:34:23.960Z,23.12
2019-02-21T09:37:08.486Z,22.40
2019-02-21T09:39:43.051Z,24.27
2019-02-21T09:42:17.244Z,26.82
2019-02-21T09:44:51.827Z,22.85
2019-02-21T09:47:25.987Z,26.33
2019-02-21T09:50:00.538Z,31.82
2019-02-21T09:52:35.819Z,29.63
2019-02-21T09:55:12.734Z,31.37
2019-02-21T09:58:01.871Z,29.45
2019-02-21T10:00:36.073Z,30.20
2019-02-21T10:03:09.854Z,36.67
2019-02-21T10:05:43.491Z,29.13
2019-02-21T10:08:17.184Z,31.40
2019-02-21T10:10:50.876Z,32.30
2019-02-21T10:13:24.578Z,30.77
2019-02-21T10:16:04.616Z,35.10
2019-02-21T10:18:37.046Z,31.73
2019-02-21T10:21:10.634Z,32.93
2019-02-21T10:23:44.274Z,32.73
2019-02-21T10:26:17.942Z,33.80
2019-02-21T10:28:51.627Z,32.10
2019-02-21T10:31:25.267Z,31.93
2019-02-21T10:34:01.841Z,34.73
2019-02-21T10:36:35.879Z,32.60
2019-02-21T10:39:09.552Z,34.37
2019-02-21T10:41:43.199Z,34.43
2019-02-21T10:44:16.918Z,32.33
2019-02-21T10:46:50.903Z,36.90
2019-02-21T10:49:24.527Z,34.07
2019-02-21T10:52:01.181Z,40.37
2019-02-21T10:54:34.802Z,37.17
2019-02-21T10:57:08.386Z,41.03
2019-02-21T10:59:50.205Z,35.80
2019-02-21T11:02:23.895Z,33.10
2019-02-21T11:05:00.587Z,33.77
2019-02-21T11:07:34.172Z,39.30
2019-02-21T11:10:19.320Z,34.53
2019-02-21T11:12:53.206Z,33.70
2019-02-21T11:15:34.252Z,35.70
2019-02-21T11:18:07.898Z,35.10
2019-02-21T11:20:41.484Z,35.20
2019-02-21T11:23:15.182Z,36.00
2019-02-21T11:25:48.833Z,42.73
2019-02-21T11:28:22.519Z,38.30
2019-02-21T11:30:56.247Z,33.23
2019-02-21T11:33:30.238Z,35.83
2019-02-21T11:36:06.985Z,34.53
2019-02-21T11:38:40.578Z,30.80
2019-02-21T11:41:14.349Z,35.23
2019-02-21T11:43:47.937Z,41.90
2019-02-21T11:46:23.647Z,35.13
2019-02-21T11:48:57.247Z,39.83
2019-02-21T11:51:36.939Z,35.87
2019-02-21T11:54:10.703Z,41.30
2019-02-21T11:56:44.302Z,43.53
2019-02-21T11:59:17.926Z,42.23
2019-02-21T12:01:51.531Z,42.20
2019-02-21T12:04:28.373Z,39.13
2019-02-21T12:07:01.968Z,42.57
2019-02-21T12:09:35.681Z,41.93
2019-02-21T12:12:10.467Z,40.63
2019-02-21T12:14:44.295Z,43.17
2019-02-21T12:17:18.053Z,42.33
2019-02-21T12:19:54.783Z,43.13
2019-02-21T12:22:28.551Z,42.80
2019-02-21T12:25:13.875Z,43.97
2019-02-21T12:27:47.920Z,41.27
2019-02-21T12:30:21.668Z,45.43
2019-02-21T12:32:55.426Z,53.67
2019-02-21T12:35:30.145Z,44.13
2019-02-21T12:38:07.135Z,47.33
2019-02-21T12:40:41.185Z,47.20
2019-02-21T12:43:14.842Z,43.60
2019-02-21T12:45:48.429Z,45.70
2019-02-21T12:48:22.043Z,47.97
2019-02-21T12:50:55.785Z,41.63
2019-02-21T12:53:29.424Z,46.47
2019-02-21T12:56:09.241Z,42.23
2019-02-21T12:58:45.198Z,45.03
2019-02-21T13:01:18.138Z,49.47
2019-02-21T13:03:51.728Z,46.97
2019-02-21T13:06:25.373Z,58.33
2019-02-21T13:08:59.040Z,59.43
2019-02-21T13:11:32.746Z,54.73
2019-02-21T13:14:06.682Z,59.40
2019-02-21T13:16:40.373Z,58.10
2019-02-21T13:19:14.003Z,61.37
2019-02-21T13:21:47.701Z,59.87
2019-02-21T13:24:22.797Z,56.43
2019-02-21T13:26:56.440Z,63.03
2019-02-21T13:29:30.010Z,56.03
2019-02-21T13:32:03.630Z,62.77
2019-02-21T13:34:37.207Z,62.90
2019-02-21T13:37:10.857Z,64.03
2019-02-21T13:39:50.712Z,63.13
2019-02-21T13:42:24.315Z,68.73
2019-02-21T13:45:02.649Z,73.30
2019-02-21T13:47:36.236Z,66.80
2019-02-21T13:50:15.475Z,79.13
2019-02-21T13:52:49.050Z,69.47
2019-02-21T13:55:25.937Z,82.87
2019-02-21T13:57:59.600Z,78.83
2019-02-21T14:00:33.532Z,73.50
2019-02-21T14:03:07.287Z,75.30
2019-02-21T14:05:40.913Z,83.43
2019-02-21T14:08:14.656Z,75.53
2019-02-21T14:10:48.307Z,75.40
2019-02-21T14:13:21.926Z,72.87
2019-02-21T14:15:55.523Z,68.50
2019-02-21T14:18:29.222Z,75.00
2019-02-21T14:21:02.808Z,74.90
2019-02-21T14:23:36.780Z,78.37
2019-02-21T14:26:10.411Z,76.90
2019-02-21T14:28:44.011Z,83.43
2019-02-21T14:31:17.643Z,73.17
2019-02-21T14:33:51.951Z,75.33
2019-02-21T14:36:26.632Z,68.47
2019-02-21T14:39:00.320Z,80.50
2019-02-21T14:41:33.948Z,71.27
2019-02-21T14:44:15.464Z,68.73
2019-02-21T14:46:50.294Z,64.77
2019-02-21T14:49:29.152Z,65.80
2019-02-21T14:52:02.824Z,62.60
2019-02-21T14:54:38.128Z,63.57
2019-02-21T14:57:11.820Z,59.27
2019-02-21T14:59:45.440Z,66.13
2019-02-21T15:02:19.103Z,67.30
2019-02-21T15:04:52.788Z,74.63
2019-02-21T15:07:38.590Z,71.47
2019-02-21T15:10:12.320Z,81.13
2019-02-21T15:12:49.076Z,74.43
2019-02-21T15:15:25.766Z,74.33
2019-02-21T15:18:08.250Z,69.43
2019-02-21T15:20:43.553Z,78.80
2019-02-21T15:23:18.354Z,70.67
2019-02-21T15:25:52.020Z,70.00
2019-02-21T15:28:25.727Z,69.80
2019-02-21T15:30:59.357Z,73.03
2019-02-21T15:33:32.955Z,65.67
2019-02-21T15:36:06.644Z,66.97
2019-02-21T15:38:40.680Z,67.47
2019-02-21T15:41:14.299Z,63.13
2019-02-21T15:43:48.874Z,69.07
2019-02-21T15:46:22.487Z,73.47
2019-02-21T15:48:56.452Z,64.00
2019-02-21T15:51:30.085Z,69.87
2019-02-21T15:54:03.848Z,69.37
2019-02-21T15:56:37.556Z,62.37
2019-02-21T15:59:13.505Z,67.37
2019-02-21T16:01:47.896Z,64.73
2019-02-21T16:04:22.020Z,60.10
2019-02-21T16:06:57.540Z,65.40
2019-02-21T16:09:31.161Z,69.23
2019-02-21T16:12:05.831Z,59.00
2019-02-21T16:14:39.592Z,59.97
2019-02-21T16:17:13.208Z,59.53
2019-02-21T16:19:46.849Z,62.03
2019-02-21T16:22:23.526Z,54.40
2019-02-21T16:24:57.163Z,58.00
2019-02-21T16:27:30.750Z,58.27
2019-02-21T16:30:05.607Z,58.93
2019-02-21T16:32:39.268Z,59.37
2019-02-21T16:35:14.339Z,58.23
2019-02-21T16:37:47.987Z,62.60
2019-02-21T16:40:21.642Z,50.93
2019-02-21T16:42:55.356Z,53.17
2019-02-21T16:45:42.168Z,53.10
2019-02-21T16:48:04.761Z,48.50
2019-02-21T16:50:38.381Z,54.47
2019-02-21T16:53:11.967Z,48.03
2019-02-21T16:55:45.628Z,53.20
2019-02-21T16:58:19.250Z,53.50
2019-02-21T17:00:56.644Z,48.37
2019-02-21T17:03:28.262Z,45.87
2019-02-21T17:06:03.562Z,42.43
2019-02-21T17:08:37.367Z,44.03
2019-02-21T17:11:12.043Z,48.83
2019-02-21T17:13:45.781Z,41.37
2019-02-21T17:16:27.384Z,47.77
2019-02-21T17:19:01.061Z,41.70
2019-02-21T17:21:34.663Z,43.10
2019-02-21T17:24:08.314Z,49.17
2019-02-21T17:26:42.002Z,44.60
2019-02-21T17:29:21.682Z,44.80
2019-02-21T17:31:55.372Z,37.03
2019-02-21T17:34:28.989Z,39.63
2019-02-21T17:37:02.605Z,35.00
2019-02-21T17:39:40.986Z,35.57
2019-02-21T17:42:14.602Z,40.00
2019-02-21T17:44:48.222Z,33.50
2019-02-21T17:47:21.890Z,30.97
2019-02-21T17:49:55.480Z,29.80
2019-02-21T17:52:29.102Z,28.33
2019-02-21T17:55:02.789Z,26.03
2019-02-21T17:57:45.607Z,29.13
2019-02-21T18:00:23.175Z,23.87
2019-02-21T18:02:56.875Z,25.40
2019-02-21T18:05:30.539Z,23.77
2019-02-21T18:08:04.393Z,27.23
2019-02-21T18:10:53.123Z,25.23
2019-02-21T18:13:26.919Z,27.33
2019-02-21T18:16:00.539Z,23.93
2019-02-21T18:18:34.223Z,27.70
2019-02-21T18:21:09.001Z,28.93
2019-02-21T18:23:42.633Z,27.23
2019-02-21T18:26:16.686Z,28.17
2019-02-21T18:28:50.443Z,27.67
2019-02-21T18:31:24.210Z,27.87
2019-02-21T18:33:57.823Z,29.87
2019-02-21T18:36:34.482Z,25.93
2019-02-21T18:39:08.217Z,28.17
2019-02-21T18:41:41.896Z,31.90
2019-02-21T18:44:18.526Z,28.40
2019-02-21T18:46:54.007Z,28.67
2019-02-21T18:49:27.673Z,30.00
2019-02-21T18:52:01.299Z,31.10
2019-02-21T18:54:34.955Z,29.40
2019-02-21T18:57:08.652Z,32.27
2019-02-21T18:59:42.313Z,35.17
2019-02-21T19:02:16.051Z,33.53
2019-02-21T19:04:49.668Z,34.73
2019-02-21T19:07:23.279Z,30.33
2019-02-21T19:09:56.944Z,33.90
2019-02-21T19:12:38.064Z,29.40
2019-02-21T19:15:12.812Z,30.23
2019-02-21T19:17:46.510Z,28.17
2019-02-21T19:20:21.907Z,33.20
2019-02-21T19:22:58.674Z,33.80
2019-02-21T19:25:32.335Z,31.73
2019-02-21T19:28:06.115Z,33.33
2019-02-21T19:30:46.031Z,35.93
2019-02-21T19:33:20.796Z,32.03
2019-02-21T19:35:54.566Z,36.20
2019-02-21T19:38:49.627Z,34.60
2019-02-21T19:41:23.319Z,32.60
2019-02-21T19:44:08.072Z,32.27
2019-02-21T19:46:32.174Z,41.93
2019-02-21T19:49:05.967Z,36.30
2019-02-21T19:51:39.632Z,36.33
2019-02-21T19:54:13.403Z,40.87
2019-02-21T19:56:47.136Z,35.10
2019-02-21T19:59:20.828Z,32.97
2019-02-21T20:01:58.330Z,41.83
2019-02-21T20:04:45.074Z,34.83
2019-02-21T20:07:18.838Z,40.30
2019-02-21T20:10:06.562Z,39.87
2019-02-21T20:12:40.272Z,35.27
2019-02-21T20:15:23.416Z,40.50
2019-02-21T20:17:57.144Z,42.90
2019-02-21T20:20:30.906Z,38.07
2019-02-21T20:23:04.644Z,47.77
2019-02-21T20:25:38.268Z,46.87
2019-02-21T20:28:11.944Z,46.07
2019-02-21T20:30:45.709Z,41.73
2019-02-21T20:33:19.372Z,53.90
2019-02-21T20:35:53.059Z,53.63
2019-02-21T20:38:38.860Z,45.20
2019-02-21T20:41:12.483Z,46.80
2019-02-21T20:43:46.244Z,44.37
2019-02-21T20:46:19.894Z,46.30
2019-02-21T20:48:55.560Z,40.60
2019-02-21T20:51:29.237Z,40.40
2019-02-21T20:54:02.928Z,40.57
2019-02-21T20:56:36.539Z,42.93
2019-02-21T20:59:10.231Z,31.80
2019-02-21T21:01:43.984Z,37.50
2019-02-21T21:04:17.590Z,48.63
2019-02-21T21:06:51.360Z,43.87
2019-02-21T21:09:25.169Z,45.13
2019-02-21T21:12:00.360Z,42.63
2019-02-21T21:14:37.011Z,39.00
2019-02-21T21:17:10.612Z,43.23
2019-02-21T21:19:56.293Z,42.57
2019-02-21T21:22:29.908Z,41.27
2019-02-21T21:25:09.187Z,44.07
2019-02-21T21:27:42.892Z,41.83
2019-02-21T21:30:17.734Z,46.20
2019-02-21T21:32:51.344Z,47.13
2019-02-21T21:35:25.258Z,45.57
2019-02-21T21:37:59.272Z,38.03
2019-02-21T21:40:33.031Z,37.93
2019-02-21T21:43:06.665Z,36.00
2019-02-21T21:45:40.441Z,36.53
2019-02-21T21:48:14.196Z,35.17
2019-02-21T21:50:48.801Z,38.97
2019-02-21T21:53:22.482Z,46.50
2019-02-21T21:55:56.069Z,50.10
2019-02-21T21:58:29.696Z,52.57
2019-02-21T22:01:03.358Z,48.67
2019-02-21T22:03:46.218Z,49.20
2019-02-21T22:06:19.894Z,56.97
2019-02-21T22:09:04.182Z,57.43
2019-02-21T22:11:34.919Z,46.93
2019-02-21T22:14:08.606Z,46.87
2019-02-21T22:16:42.353Z,48.10
2019-02-21T22:19:15.963Z,48.53
2019-02-21T22:21:49.555Z,54.53
2019-02-21T22:24:26.327Z,53.33
2019-02-21T22:27:00.047Z,57.47
2019-02-21T22:29:42.958Z,59.30
2019-02-21T22:32:16.627Z,54.13
2019-02-21T22:34:50.555Z,78.10
2019-02-21T22:37:24.159Z,73.63
2019-02-21T22:39:57.776Z,75.20
2019-02-21T22:42:31.435Z,72.53
2019-02-21T22:45:06.710Z,76.07
2019-02-21T22:47:40.614Z,74.40
2019-02-21T22:50:27.298Z,74.17
2019-02-21T22:53:01.046Z,74.57
2019-02-21T22:55:34.903Z,86.87
2019-02-21T22:58:08.566Z,85.13
2019-02-21T23:01:00.982Z,77.73
2019-02-21T23:03:46.744Z,71.17
2019-02-21T23:06:29.240Z,74.03
2019-02-21T23:09:03.941Z,76.77
2019-02-21T23:11:37.562Z,70.90
2019-02-21T23:14:11.303Z,73.13
2019-02-21T23:16:45.304Z,75.47
2019-02-21T23:19:19.039Z,68.33
2019-02-21T23:21:53.026Z,72.50
2019-02-21T23:24:26.703Z,69.60
2019-02-21T23:27:00.371Z,65.30
2019-02-21T23:29:34.061Z,69.13
2019-02-21T23:32:09.654Z,69.17
2019-02-21T23:34:43.554Z,63.57
2019-02-21T23:37:17.319Z,72.60
2019-02-21T23:39:53.910Z,58.77
2019-02-21T23:42:27.499Z,58.73
2019-02-21T23:45:07.958Z,66.57
2019-02-21T23:47:49.294Z,64.60
2019-02-21T23:50:16.931Z,60.70
2019-02-21T23:53:02.574Z,65.03
2019-02-21T23:55:36.261Z,63.87
2019-02-21T23:58:17.371Z,44.70
